• Join FlightAware (Why Join?)
  • Login
  • US Flag 
12:31AM EDT


 

Airport Tracker/Info


-or-


 

Live Flight TrackerFlight Track Log ✈ SKW2950 ✈ 10-May-2013 ✈ KSBA - KPHX

Flight Track Log - Related Links

Times and Time Zones

All times are in EDT time to prevent confusion due to time zone crossing. See the SKW2950 flight status page for this flight to view local times or setup timezone preferences in your user account.

Time Position Orientation Groundspeed Altitude Reporting Facility
EDT Latitude Longitude Course Direction KTS MPH feet Rate Location/Type
09:35AM 34.4272 -119.8664 264° West 152 175 600  Level Los Angeles Center
09:36AM 34.4239 -119.9050 264° West 209 241 1,900 1,920 Climbing Los Angeles Center
09:37AM 34.3708 -119.9225 195° South 271 312 3,900 2,220 Climbing Los Angeles Center
09:38AM 34.3056 -119.8797 152° Southeast 272 313 6,500 2,580 Climbing Los Angeles Center
09:39AM 34.2364 -119.8358 152° Southeast 274 315 9,200 2,340 Climbing Los Angeles Center
09:40AM 34.1608 -119.7928 155° Southeast 284 327 11,400 2,040 Climbing Los Angeles Center
09:41AM 34.0800 -119.7336 149° Southeast 329 379 13,400 1,680 Climbing Los Angeles Center
09:42AM 34.0286 -119.6383 123° Southeast 338 389 14,900 1,860 Climbing Los Angeles Center
09:43AM 33.9650 -119.5167 122° Southeast 355 409 17,300 1,860 Climbing Los Angeles Center
09:44AM 33.9092 -119.4119 123° Southeast 367 422 18,800 1,560 Climbing Los Angeles Center
09:45AM 33.8542 -119.3028 121° Southeast 381 438 20,500 1,440 Climbing Los Angeles Center
09:46AM 33.7961 -119.1967 123° Southeast 383 441 21,800 1,260 Climbing Los Angeles Center
09:47AM 33.7367 -119.0861 123° Southeast 393 452 23,100 1,200 Climbing Los Angeles Center
09:48AM 33.6753 -118.9756 124° Southeast 399 459 24,300 1,080 Climbing Los Angeles Center
09:49AM 33.6272 -118.8553 116° Southeast 408 470 25,400 1,200 Climbing Los Angeles Center
09:50AM 33.6283 -118.6975 89° East 400 460 26,800 1,200 Climbing Los Angeles Center
09:51AM 33.6297 -118.5658 89° East 398 458 27,900 900 Climbing Los Angeles Center
09:52AM 33.6300 -118.4333 90° East 402 463 28,700 780 Climbing Los Angeles Center
09:53AM 33.6314 -118.2997 89° East 412 474 29,500 660 Climbing Los Angeles Center
09:54AM 33.6325 -118.1656 89° East 412 474 30,100 720 Climbing Los Angeles Center
09:55AM 33.6342 -118.0008 89° East 417 480 31,000 1,020 Climbing Los Angeles Center
09:56AM 33.6347 -117.8658 90° East 411 473 32,300 960 Climbing Los Angeles Center
09:57AM 33.6358 -117.7358 89° East 398 458 33,000 300 Climbing Los Angeles Center
09:58AM 33.6358 -117.6031 90° East 398 458 33,000  Level Los Angeles Center
09:59AM 33.6364 -117.4681 90° East 404 465 33,000  Level Los Angeles Center
10:00AM 33.6358 -117.3325 90° East 408 470 33,000  Level Los Angeles Center
10:01AM 33.6356 -117.1964 90° East 408 470 33,000  Level Los Angeles Center
10:02AM 33.6356 -117.0297 90° East 416 479 33,000  Level Los Angeles Center
10:04AM 33.6347 -116.8914 90° East 417 480 33,000  Level Los Angeles Center
10:05AM 33.6356 -116.7628 90° East 411 473 33,000  Level Los Angeles Center
10:06AM 33.6339 -116.6292 91° East 403 464 33,000  Level Los Angeles Center
10:07AM 33.6314 -116.4911 91° East 408 470 33,000  Level Los Angeles Center
10:08AM 33.6303 -116.3508 91° East 416 479 33,000  Level Los Angeles Center
10:09AM 33.6281 -116.1831 91° East 418 481 33,000  Level Los Angeles Center
10:10AM 33.6258 -116.0486 91° East 408 470 33,000  Level Los Angeles Center
10:11AM 33.6233 -115.9136 91° East 405 466 33,000  Level Los Angeles Center
10:12AM 33.6200 -115.7778 92° East 407 468 33,000  Level Los Angeles Center
10:13AM 33.6164 -115.6361 92° East 420 483 33,000  Level Los Angeles Center
10:14AM 33.6064 -115.4925 95° East 429 494 33,000  Level Los Angeles Center
10:15AM 33.5900 -115.3469 98° East 436 502 33,000  Level Los Angeles Center
10:16AM 33.5761 -115.2014 96° East 440 506 33,000  Level Los Angeles Center
10:17AM 33.5603 -115.0311 96° East 431 496 33,000  Level Los Angeles Center
10:18AM 33.5447 -114.8906 98° East 426 490 33,000  Level Los Angeles Center
10:19AM 33.5308 -114.7497 97° East 426 490 33,000 -540 Level Los Angeles Center
10:20AM 33.5161 -114.6089 97° East 426 490 31,900 -1,560 Descending Los Angeles Center
10:21AM 33.5025 -114.4681 97° East 426 490 29,900 -1,980 Descending Los Angeles Center
10:22AM 33.4864 -114.3303 98° East 420 483 27,900 -1,860 Descending Los Angeles Center
10:23AM 33.4739 -114.1728 95° East 425 489 26,000 -1,380 Descending Albuquerque Center
10:24AM 33.4575 -114.0272 98° East 438 504 25,000 -540 Descending Albuquerque Center
10:25AM 33.4361 -113.8839 100° East 439 505 25,000  Level Albuquerque Center
10:26AM 33.4164 -113.7386 99° East 442 509 25,000  Level Albuquerque Center
10:27AM 33.3961 -113.5989 100° East 432 497 25,000 -360 Level Albuquerque Center
10:28AM 33.3731 -113.4414 100° East 406 467 24,300 -1,560 Descending Albuquerque Center
10:29AM 33.3544 -113.3142 100° East 396 456 21,800 -2,640 Descending Albuquerque Center
10:30AM 33.3367 -113.1914 100° East 380 437 18,900 -2,700 Descending Albuquerque Center
10:31AM 33.3189 -113.0711 100° East 370 426 16,300 -2,220 Descending Albuquerque Center
10:32AM 33.3025 -112.9628 100° East 344 396 14,400 -1,860 Descending Albuquerque Center
10:33AM 33.2872 -112.8622 100° East 318 366 12,500 -1,920 Descending Albuquerque Center
10:34AM 33.3008 -112.7672 80° East 300 345 10,500 -1,260 Descending Albuquerque Center
10:35AM 33.3367 -112.6706 66° East 270 311 9,900 -780 Descending Albuquerque Center
10:37AM 33.3658 -112.5939 65° Northeast 258 297 8,900 -840 Descending Albuquerque Center
10:38AM 33.4000 -112.5350 55° Northeast 242 278 8,200 -540 Descending Albuquerque Center
10:39AM 33.4328 -112.4794 55° Northeast 210 242 7,900 -540 Descending Albuquerque Center
10:40AM 33.4406 -112.4000 83° East 214 246 7,100 -720 Descending Albuquerque Center
10:41AM 33.4406 -112.3314 90° East 209 241 6,500 -840 Descending Albuquerque Center
10:42AM 33.4408 -112.2678 90° East 199 229 5,400 -1,020 Descending Albuquerque Center
10:43AM 33.4408 -112.2100 90° East 184 212 4,500 -1,020 Descending Albuquerque Center
10:44AM 33.4414 -112.1567 89° East 171 197 3,400 -960 Descending Albuquerque Center
10:45AM 33.4414 -112.1072 90° East 162 186 2,600 -960 Descending Albuquerque Center
10:46AM 33.4414 -112.0506 90° East 151 174 1,500 -780 Descending Albuquerque Center
10:47AM 33.4417 -112.0069 90° East 148 170 1,100 -420 Descending Albuquerque Center